• Join FlightAware (Why Join?)
  • Login
  • US Flag 
04:43AM EDT


 

Airport Tracker/Info


-or-


 

Live Flight TrackerFlight Track Log ✈ EJA396 ✈ 02-Aug-2013 ✈ KLAS - KSMO

Flight Track Log - Related Links

Times and Time Zones

All times are in EDT time to prevent confusion due to time zone crossing. See the EJA396 flight status page for this flight to view local times or setup timezone preferences in your user account.

Time Position Orientation Groundspeed Altitude Reporting Facility
EDT Latitude Longitude Course Direction KTS MPH feet Rate Location/Type
11:17AM 36.0747 -115.1714 205° Southwest 153 176 3,200  Level Los Angeles Center
11:18AM 36.0208 -115.2022 205° Southwest 213 245 5,700 1,920 Climbing Los Angeles Center
11:19AM 35.9925 -115.2508 234° Southwest 235 270 6,800 1,260 Climbing Los Angeles Center
11:20AM 35.9244 -115.3072 214° Southwest 258 297 8,100 2,160 Climbing Los Angeles Center
11:21AM 35.8472 -115.3153 185° South 269 310 11,300 3,240 Climbing Los Angeles Center
11:22AM 35.7581 -115.3044 174° South 310 357 15,000 3,300 Climbing Los Angeles Center
11:23AM 35.6594 -115.3181 186° South 313 360 18,900 2,700 Climbing Los Angeles Center
11:24AM 35.5950 -115.4050 228° Southwest 335 386 21,100 1,500 Climbing Los Angeles Center
11:25AM 35.5264 -115.4997 228° Southwest 358 412 22,000 420 Climbing Los Angeles Center
11:26AM 35.4472 -115.6067 228° Southwest 394 453 22,000  Level Los Angeles Center
11:27AM 35.3722 -115.7053 227° Southwest 395 455 22,000  Level Los Angeles Center
11:28AM 35.2989 -115.8039 228° Southwest 392 451 22,000  Level Los Angeles Center
11:29AM 35.2114 -115.9203 227° Southwest 388 447 22,000  Level Los Angeles Center
11:30AM 35.1372 -116.0167 227° Southwest 388 447 22,000  Level Los Angeles Center
11:31AM 35.0631 -116.1131 227° Southwest 390 449 22,000  Level Los Angeles Center
11:32AM 34.9881 -116.2111 227° Southwest 391 450 22,000 -300 Level Los Angeles Center
11:33AM 34.9219 -116.3158 232° Southwest 397 457 21,500 -960 Descending Los Angeles Center
11:34AM 34.8972 -116.4500 257° West 405 466 20,100 -780 Descending Los Angeles Center
11:35AM 34.8736 -116.6094 260° West 400 460 20,000 -60 Descending Los Angeles Center
11:37AM 34.8522 -116.7425 259° West 401 461 20,000  Level Los Angeles Center
11:38AM 34.8303 -116.8772 259° West 404 465 20,000  Level Los Angeles Center
11:39AM 34.8081 -117.0108 259° West 403 464 20,000 -300 Level Los Angeles Center
11:40AM 34.7861 -117.1436 259° West 400 460 19,400 -1,080 Descending Los Angeles Center
11:41AM 34.7642 -117.2708 258° West 386 444 17,800 -1,500 Descending Los Angeles Center
11:42AM 34.7444 -117.3947 259° West 375 432 16,300 -1,620 Descending Los Angeles Center
11:43AM 34.7131 -117.5422 256° West 374 430 14,500 -1,380 Descending Los Angeles Center
11:44AM 34.6797 -117.6589 251° West 367 422 13,500 -1,020 Descending Los Angeles Center
11:45AM 34.6486 -117.7733 252° West 357 411 12,400 -1,080 Descending Los Angeles Center
11:46AM 34.6172 -117.8875 252° West 355 409 11,300 -1,020 Descending Los Angeles Center
11:47AM 34.5900 -117.9875 252° West 311 358 10,400 -840 Descending Los Angeles Center
11:48AM 34.5642 -118.0758 250° West 283 326 9,600 -900 Descending Los Angeles Center
11:49AM 34.5358 -118.1742 251° West 280 322 8,600 -780 Descending Los Angeles Center
11:50AM 34.5086 -118.2622 249° West 278 320 8,000 -300 Descending Los Angeles Center
11:51AM 34.4478 -118.3089 212° Southwest 269 310 8,000 -240 Level Los Angeles Center
11:52AM 34.3606 -118.3286 191° South 265 305 7,600 -540 Descending Los Angeles Center
11:53AM 34.2917 -118.3411 189° South 253 291 7,000 -600 Descending Los Angeles Center
11:54AM 34.2331 -118.3156 160° South 230 265 6,400 -600 Descending Los Angeles Center
11:55AM 34.1797 -118.2886 157° South 214 246 5,800 -1,080 Descending Los Angeles Center
11:56AM 34.1306 -118.3000 191° South 192 221 4,200 -1,620 Descending Los Angeles Center
11:57AM 34.0942 -118.3467 227° Southwest 169 194 2,500 -1,080 Descending Los Angeles Center
11:58AM 34.0714 -118.3828 233° Southwest 146 168 2,000 -660 Descending Los Angeles Center
11:59AM 34.0472 -118.4122 225° Southwest 132 152 1,200 -780 Descending Los Angeles Center
12:00PM 34.0253 -118.4406 227° Southwest 124 143 400 -780 Descending Los Angeles Center
12:02PM 34.0158 -118.4513 244° Southwest  Level Estimated